Terminal Aerodrome Forecast
Issued by NWS

Home | Current Version | Previous Version | Text Only | Print | Product List | Glossary On
Versions: 1 2 3 4 5 6 7 8 9 10 11 12 13 14 15 16 17 18 19 20 21 22 23 24 25 26 27 28 29 30 31 32
000
FTUS41 KBOX 261120
TAFFMH
TAF
KFMH 261120Z 2612/2712 36004KT P6SM FEW045
     FM261500 02007KT P6SM SCT045
     FM262000 07006KT P6SM BKN045
     FM262300 18005KT P6SM BKN045
     FM270200 24004KT P6SM BKN050
     FM270800 30004KT P6SM BKN200=

USA.gov is the U.S. government's official web portal to all federal, state and local government web resources and services.